createdAt,value
2018-05-27T04:34:22.504Z,98.70
2018-05-27T04:36:52.801Z,99.10
2018-05-27T04:39:22.616Z,99.40
2018-05-27T04:41:52.868Z,99.40
2018-05-27T04:44:23.056Z,99.10
2018-05-27T04:46:52.460Z,98.50
2018-05-27T04:49:22.628Z,98.50
2018-05-27T04:51:52.084Z,98.10
2018-05-27T04:54:22.225Z,98.00
2018-05-27T04:59:22.156Z,97.70
2018-05-27T05:01:52.779Z,97.80
2018-05-27T05:04:23.015Z,97.90
2018-05-27T05:06:52.152Z,97.80
2018-05-27T05:09:21.131Z,97.40
2018-05-27T05:11:49.795Z,96.80
2018-05-27T05:14:23.400Z,96.60
2018-05-27T05:16:52.333Z,96.20
2018-05-27T05:19:24.932Z,96.40
2018-05-27T05:21:53.588Z,95.80
2018-05-27T05:24:28.624Z,95.50
2018-05-27T05:26:58.522Z,95.00
2018-05-27T05:29:30.228Z,95.50
2018-05-27T05:31:58.880Z,95.10
2018-05-27T05:34:31.808Z,95.40
2018-05-27T05:37:02.202Z,95.10
2018-05-27T05:39:35.406Z,95.00
2018-05-27T05:42:04.059Z,95.00
2018-05-27T05:44:37.079Z,95.10
2018-05-27T05:47:07.214Z,94.80
2018-05-27T05:49:38.449Z,95.50
2018-05-27T05:52:07.878Z,95.50
2018-05-27T05:54:49.351Z,95.10
2018-05-27T05:59:50.685Z,94.50
2018-05-27T06:04:49.361Z,94.10
2018-05-27T06:07:18.223Z,94.60
2018-05-27T06:09:49.152Z,94.30
2018-05-27T06:12:18.865Z,94.50
2018-05-27T06:14:51.888Z,94.60
2018-05-27T06:17:20.564Z,94.40
2018-05-27T06:19:53.537Z,94.50
2018-05-27T06:22:22.161Z,94.50
2018-05-27T06:24:56.400Z,94.20
2018-05-27T06:27:25.669Z,93.20
2018-05-27T06:29:58.886Z,90.20
2018-05-27T06:35:01.854Z,78.60
2018-05-27T06:37:30.883Z,71.70
2018-05-27T06:40:12.876Z,68.70
2018-05-27T06:42:41.900Z,65.30
2018-05-27T06:45:11.315Z,64.50
2018-05-27T06:47:40.965Z,59.80
2018-05-27T06:50:13.251Z,61.30
2018-05-27T06:52:42.418Z,65.30
2018-05-27T06:57:41.002Z,71.50
2018-05-27T07:00:14.160Z,70.00
2018-05-27T07:02:43.255Z,66.50
2018-05-27T07:05:25.497Z,64.60
2018-05-27T07:07:56.985Z,63.50
2018-05-27T07:10:25.668Z,61.50
2018-05-27T07:12:54.381Z,61.30
2018-05-27T07:15:23.352Z,58.80
2018-05-27T07:17:51.986Z,57.60
2018-05-27T07:20:25.247Z,57.40
2018-05-27T07:22:54.191Z,57.80
2018-05-27T07:25:26.694Z,56.40
2018-05-27T07:27:55.365Z,53.80
2018-05-27T07:30:28.509Z,53.90
2018-05-27T07:32:58.809Z,55.60
2018-05-27T07:35:31.585Z,56.00
2018-05-27T07:38:00.509Z,54.60
2018-05-27T07:40:33.264Z,53.70
2018-05-27T07:43:02.343Z,53.00
2018-05-27T07:45:35.064Z,51.70
2018-05-27T07:48:04.856Z,52.50
2018-05-27T07:50:37.488Z,54.50
2018-05-27T07:58:08.281Z,53.90
2018-05-27T08:00:43.542Z,52.50
2018-05-27T08:03:12.306Z,51.70
2018-05-27T08:05:44.707Z,48.90
2018-05-27T08:08:13.687Z,46.20
2018-05-27T08:10:46.933Z,47.70
2018-05-27T08:13:15.555Z,46.60
2018-05-27T08:15:48.861Z,47.40
2018-05-27T08:18:17.496Z,47.30
2018-05-27T08:25:58.391Z,47.10
2018-05-27T08:28:27.832Z,49.30
2018-05-27T08:30:57.287Z,48.80
2018-05-27T08:33:25.996Z,47.10
2018-05-27T08:36:01.648Z,47.50
2018-05-27T08:43:30.857Z,54.40
2018-05-27T08:46:12.987Z,54.20
2018-05-27T08:48:42.059Z,54.60
2018-05-27T08:56:11.433Z,54.60
2018-05-27T08:58:40.423Z,54.70
2018-05-27T09:01:13.184Z,52.90
2018-05-27T09:03:42.224Z,53.80
2018-05-27T09:06:16.489Z,54.70
2018-05-27T09:08:45.865Z,54.10
2018-05-27T09:11:17.637Z,54.70
2018-05-27T09:13:47.332Z,55.70
2018-05-27T09:16:28.340Z,55.20
2018-05-27T09:18:58.959Z,55.90
2018-05-27T09:21:28.024Z,56.70
2018-05-27T09:23:57.691Z,59.50
2018-05-27T09:28:58.099Z,60.90
2018-05-27T09:31:28.351Z,62.50
2018-05-27T09:33:57.460Z,61.50
2018-05-27T09:36:29.186Z,61.00
2018-05-27T09:38:58.473Z,61.70
2018-05-27T09:41:31.280Z,62.20
2018-05-27T09:44:00.007Z,61.90
2018-05-27T09:46:33.367Z,62.10
2018-05-27T09:49:02.682Z,60.20
2018-05-27T09:51:35.567Z,60.30
2018-05-27T09:54:04.604Z,58.80
2018-05-27T09:56:38.071Z,58.60
2018-05-27T09:59:07.194Z,58.60
2018-05-27T10:04:09.840Z,59.20
2018-05-27T10:06:43.055Z,57.70
2018-05-27T10:09:12.276Z,57.90
2018-05-27T10:11:45.689Z,57.80
2018-05-27T10:14:15.033Z,56.80
2018-05-27T10:16:57.211Z,55.10
2018-05-27T10:19:27.733Z,54.90
2018-05-27T10:21:58.543Z,55.20
2018-05-27T10:24:27.446Z,55.30
2018-05-27T10:26:56.410Z,57.00
2018-05-27T10:29:25.803Z,59.20
2018-05-27T10:31:56.290Z,60.20
2018-05-27T10:34:26.098Z,60.60
2018-05-27T10:36:59.160Z,62.70
2018-05-27T10:39:28.256Z,64.10
2018-05-27T10:42:01.384Z,65.10
2018-05-27T10:44:30.588Z,67.30
2018-05-27T10:47:11.977Z,68.10
2018-05-27T10:49:40.915Z,68.60
2018-05-27T10:52:10.763Z,68.70
2018-05-27T10:54:42.858Z,69.50
2018-05-27T10:57:14.315Z,69.50
2018-05-27T10:59:42.999Z,69.80
2018-05-27T11:02:26.331Z,70.20
2018-05-27T11:04:55.538Z,65.90
2018-05-27T11:07:24.580Z,65.50
2018-05-27T11:09:54.829Z,67.60
2018-05-27T11:12:23.787Z,69.50
2018-05-27T11:14:53.585Z,72.90
2018-05-27T11:17:23.651Z,74.20
2018-05-27T11:19:53.756Z,73.60
2018-05-27T11:22:25.397Z,73.60
2018-05-27T11:24:54.110Z,73.00
2018-05-27T11:27:35.292Z,70.60
2018-05-27T11:30:05.669Z,67.60
2018-05-27T11:32:35.750Z,65.60
2018-05-27T11:35:04.488Z,66.00
2018-05-27T11:37:33.260Z,66.20
2018-05-27T11:40:03.395Z,68.60
2018-05-27T11:42:36.053Z,71.40
2018-05-27T11:47:36.844Z,78.20
2018-05-27T11:52:47.852Z,86.00
2018-05-27T11:55:17.607Z,90.90
2018-05-27T11:57:47.816Z,93.20
2018-05-27T12:00:17.217Z,95.00
2018-05-27T12:02:47.877Z,95.80
2018-05-27T12:07:46.175Z,97.80
2018-05-27T12:12:58.132Z,98.90
2018-05-27T12:15:28.262Z,99.40
2018-05-27T12:17:57.860Z,99.40
2018-05-27T12:20:27.276Z,98.40
2018-05-27T12:22:58.529Z,98.40
2018-05-27T12:25:27.707Z,97.80
2018-05-27T12:27:57.177Z,97.20
2018-05-27T12:30:27.613Z,96.70
2018-05-27T12:32:59.656Z,98.00
2018-05-27T12:35:29.636Z,99.00
2018-05-27T12:38:01.991Z,93.70
2018-05-27T12:40:32.335Z,95.50
2018-05-27T12:43:03.516Z,96.10
2018-05-27T12:45:32.504Z,96.90
2018-05-27T12:48:06.025Z,97.30
2018-05-27T12:50:34.811Z,96.80
2018-05-27T12:53:10.613Z,95.80
2018-05-27T12:55:41.435Z,94.80
2018-05-27T12:58:14.451Z,95.10
2018-05-27T13:00:44.374Z,94.70
2018-05-27T13:03:14.849Z,92.60
2018-05-27T13:05:43.671Z,93.80
2018-05-27T13:08:18.053Z,92.30
2018-05-27T13:10:48.583Z,91.10
2018-05-27T13:13:21.208Z,90.40
2018-05-27T13:15:50.345Z,89.40
2018-05-27T13:18:22.392Z,88.20
2018-05-27T13:20:51.022Z,87.20
2018-05-27T13:23:33.243Z,85.60
2018-05-27T13:26:02.288Z,82.90
2018-05-27T13:28:30.942Z,77.70
2018-05-27T13:30:59.609Z,77.80
2018-05-27T13:33:29.005Z,82.20
2018-05-27T13:35:59.321Z,75.10
2018-05-27T13:38:31.188Z,70.70
2018-05-27T13:46:02.416Z,64.00
2018-05-27T13:48:36.056Z,64.00
2018-05-27T13:51:05.432Z,64.60
2018-05-27T13:53:38.235Z,62.60
2018-05-27T13:56:07.591Z,64.30
2018-05-27T14:01:10.065Z,66.10
2018-05-27T14:03:43.236Z,64.60
2018-05-27T14:06:13.410Z,63.70
2018-05-27T14:11:14.024Z,63.30
2018-05-27T14:13:47.207Z,62.80
2018-05-27T14:16:15.871Z,61.70
2018-05-27T14:18:48.642Z,61.00
2018-05-27T14:21:17.321Z,60.00
2018-05-27T14:23:51.610Z,60.60
2018-05-27T14:26:21.076Z,61.00
2018-05-27T14:28:53.780Z,62.00
2018-05-27T14:31:23.225Z,61.10
2018-05-27T14:33:57.554Z,60.70
2018-05-27T14:36:27.309Z,62.80
2018-05-27T14:39:01.226Z,62.30
2018-05-27T14:41:30.265Z,63.30
2018-05-27T14:44:04.110Z,64.30
2018-05-27T14:46:33.000Z,61.80
2018-05-27T14:49:15.500Z,62.70
2018-05-27T14:51:44.470Z,64.40
2018-05-27T14:54:15.193Z,65.50
2018-05-27T14:59:14.731Z,65.30
2018-05-27T15:01:43.784Z,69.00
2018-05-27T15:04:14.128Z,74.30
2018-05-27T15:06:42.826Z,76.10
2018-05-27T15:09:18.638Z,76.90
2018-05-27T15:11:48.559Z,78.90
2018-05-27T15:16:47.288Z,78.50
2018-05-27T15:19:21.304Z,78.10
2018-05-27T15:21:49.990Z,77.70
2018-05-27T15:24:23.084Z,78.00
2018-05-27T15:26:53.534Z,77.60
2018-05-27T15:29:26.493Z,78.80
2018-05-27T15:31:55.936Z,82.70
2018-05-27T15:34:27.307Z,85.20
2018-05-27T15:36:55.932Z,87.80
2018-05-27T15:39:30.614Z,88.60
2018-05-27T15:41:59.702Z,89.10
2018-05-27T15:44:33.486Z,89.50
2018-05-27T15:47:03.587Z,90.00
2018-05-27T15:49:36.877Z,90.50
2018-05-27T15:54:36.775Z,90.80
2018-05-27T15:57:06.244Z,90.50
2018-05-27T15:59:39.305Z,91.30
2018-05-27T16:02:08.452Z,91.40
2018-05-27T16:04:41.152Z,91.80
2018-05-27T16:09:52.265Z,90.60
2018-05-27T16:12:22.464Z,90.70
2018-05-27T16:14:52.962Z,91.00
2018-05-27T16:17:22.736Z,91.10
2018-05-27T16:19:52.559Z,90.80
2018-05-27T16:22:21.193Z,90.00
2018-05-27T16:24:53.575Z,88.90
2018-05-27T16:27:22.504Z,88.80
2018-05-27T16:29:54.855Z,88.10
2018-05-27T16:32:24.334Z,90.00
2018-05-27T16:34:58.631Z,89.80
2018-05-27T16:37:27.263Z,90.20
2018-05-27T16:39:59.838Z,90.60
2018-05-27T16:42:29.549Z,90.80
2018-05-27T16:57:53.423Z,88.50
2018-05-27T17:00:22.489Z,87.80
2018-05-27T17:02:52.981Z,91.20
2018-05-27T17:05:22.443Z,92.50
2018-05-27T17:07:52.615Z,93.50
2018-05-27T17:10:22.697Z,93.80
2018-05-27T17:15:21.056Z,95.70
2018-05-27T17:17:50.044Z,95.80
2018-05-27T17:20:20.936Z,95.70
2018-05-27T17:22:50.748Z,96.50
2018-05-27T17:25:23.761Z,96.70
2018-05-27T17:27:53.246Z,97.70
2018-05-27T17:30:26.228Z,98.00
2018-05-27T17:32:55.296Z,98.00
2018-05-27T17:35:27.196Z,98.20
2018-05-27T17:37:56.272Z,98.80
2018-05-27T17:40:28.912Z,98.80
2018-05-27T17:42:58.015Z,99.00
2018-05-27T17:45:31.070Z,99.20
2018-05-27T17:48:09.262Z,99.90
2018-05-27T17:50:38.340Z,99.70
2018-05-27T17:53:08.629Z,99.40
2018-05-27T17:55:37.728Z,99.20
2018-05-27T18:00:38.375Z,99.90
2018-05-27T18:03:07.461Z,99.70
2018-05-27T18:05:49.806Z,99.70
2018-05-27T18:08:19.640Z,99.90
2018-05-27T18:10:49.637Z,99.90
2018-05-27T18:13:19.247Z,99.90
2018-05-27T18:15:49.438Z,99.90
2018-05-27T18:18:18.562Z,99.90
2018-05-27T18:23:17.285Z,99.90
2018-05-27T18:25:58.394Z,99.40
2018-05-27T18:28:28.840Z,97.10
2018-05-27T18:30:58.325Z,96.90
2018-05-27T18:33:27.052Z,96.50
2018-05-27T18:38:26.409Z,96.20
2018-05-27T18:40:58.069Z,96.00
2018-05-27T18:43:27.765Z,95.90
2018-05-27T18:46:08.977Z,96.10
2018-05-27T18:48:38.798Z,95.90
2018-05-27T18:51:09.076Z,95.70
2018-05-27T18:53:37.967Z,95.60
2018-05-27T18:56:07.453Z,95.50
2018-05-27T19:03:37.525Z,95.80
2018-05-27T19:06:10.303Z,95.20
2018-05-27T19:08:39.671Z,94.70
2018-05-27T19:11:13.351Z,93.80
2018-05-27T19:13:43.533Z,93.50
2018-05-27T19:16:25.142Z,93.00
2018-05-27T19:18:53.850Z,92.90
2018-05-27T19:23:52.859Z,93.30
2018-05-27T19:29:00.867Z,93.50
2018-05-27T19:31:29.567Z,93.60
2018-05-27T19:33:58.859Z,93.70
2018-05-27T19:38:58.385Z,94.10
2018-05-27T19:41:31.406Z,94.40
2018-05-27T19:44:00.779Z,94.60
2018-05-27T19:46:33.153Z,94.70
2018-05-27T19:51:35.609Z,94.80
2018-05-27T19:54:06.021Z,94.60
2018-05-27T19:56:38.671Z,95.10
2018-05-27T19:59:08.579Z,95.00
2018-05-27T20:01:39.235Z,95.10
2018-05-27T20:04:09.485Z,95.40
2018-05-27T20:06:41.499Z,96.30
2018-05-27T20:09:11.434Z,96.90
2018-05-27T20:11:43.715Z,97.50
2018-05-27T20:14:13.078Z,97.90
2018-05-27T20:16:46.523Z,98.10
2018-05-27T20:19:16.995Z,98.40
2018-05-27T20:21:49.237Z,99.20
2018-05-27T20:24:17.880Z,99.80
2018-05-27T20:31:52.838Z,99.90
2018-05-27T20:34:22.638Z,99.90
2018-05-27T20:36:56.358Z,99.90
2018-05-27T20:39:25.560Z,99.90
2018-05-27T20:41:59.195Z,99.90
2018-05-27T20:44:27.848Z,99.90
2018-05-27T20:47:01.015Z,99.90
2018-05-27T20:49:30.761Z,99.90
2018-05-27T20:52:12.760Z,99.90
2018-05-27T20:54:42.466Z,99.90
2018-05-27T20:57:12.869Z,99.90
2018-05-27T20:59:41.821Z,99.90
2018-05-27T21:04:40.720Z,99.90
2018-05-27T21:07:13.885Z,99.90
2018-05-27T21:09:44.002Z,99.90
2018-05-27T21:12:14.162Z,99.90
2018-05-27T21:14:43.695Z,99.90
2018-05-27T21:17:17.370Z,99.90
2018-05-27T21:19:47.648Z,99.90
2018-05-27T21:22:19.828Z,99.90
2018-05-27T21:24:49.796Z,99.90
2018-05-27T21:27:22.231Z,99.90
2018-05-27T21:32:23.670Z,99.90
2018-05-27T21:37:25.694Z,99.90
2018-05-27T21:39:56.385Z,99.90
2018-05-27T21:44:57.508Z,99.90
2018-05-27T21:47:31.117Z,99.90
2018-05-27T21:50:01.142Z,99.90
2018-05-27T21:52:35.540Z,99.90
2018-05-27T21:57:35.809Z,99.90
2018-05-27T22:00:05.346Z,99.80
2018-05-27T22:18:15.357Z,99.90
2018-05-27T22:20:46.455Z,99.90
2018-05-27T22:23:16.424Z,99.90
2018-05-27T22:25:49.159Z,99.90
2018-05-27T22:28:18.794Z,99.90
2018-05-27T22:30:51.302Z,99.90
2018-05-27T22:33:19.992Z,99.90
2018-05-27T22:36:01.205Z,99.90
2018-05-27T22:38:31.032Z,99.90
2018-05-27T22:40:59.724Z,99.90
2018-05-27T22:43:28.588Z,99.90
2018-05-27T22:45:57.981Z,99.90
2018-05-27T22:48:28.056Z,99.90
2018-05-27T22:51:02.750Z,99.90
2018-05-27T22:53:32.930Z,99.90
2018-05-27T22:56:03.669Z,99.90
2018-05-27T22:58:32.812Z,99.90
2018-05-27T23:06:12.179Z,99.90
2018-05-27T23:11:12.268Z,99.90
2018-05-27T23:18:44.146Z,99.90
2018-05-27T23:21:18.083Z,99.90
2018-05-27T23:26:18.852Z,99.90
2018-05-27T23:28:47.875Z,99.90
2018-05-27T23:31:29.468Z,99.90
2018-05-27T23:33:58.117Z,99.90
2018-05-27T23:36:27.863Z,99.90
2018-05-27T23:38:56.799Z,99.90
2018-05-27T23:41:26.212Z,99.90
2018-05-27T23:46:27.424Z,99.90
2018-05-27T23:48:56.107Z,99.90
2018-05-27T23:51:35.316Z,99.90
2018-05-27T23:54:05.111Z,99.90
2018-05-27T23:56:33.773Z,99.90
2018-05-27T23:59:02.857Z,99.90
